Time;durP1;ratioP1;P1;durP2;ratioP2;P2;SDS_P1;SDS_P2;PMS_P1;PMS_P2;Temp;Humidity;BMP_temperature;BMP_pressure;BME280_temperature;BME280_humidity;BME280_pressure;Samples;Min_cycle;Max_cycle;Signal;HPM_P1;HPM_P2
2021/11/27 00:01:34;;;;;;;;;5.00;2.75;;;;;6.52;88.14;98583.41;5024789;28;46200;-59
2021/11/27 00:03:59;;;;;;;;;3.50;3.50;;;;;6.51;88.56;98583.47;5026879;28;45653;-59
2021/11/27 00:06:25;;;;;;;;;5.00;5.00;;;;;6.47;88.84;98584.53;5027391;28;45368;-59
2021/11/27 00:08:51;;;;;;;;;5.50;5.50;;;;;6.44;88.83;98582.09;5023613;28;45352;-59
2021/11/27 00:11:17;;;;;;;;;8.75;6.00;;;;;6.42;89.00;98579.59;5025234;28;46238;-60
2021/11/27 00:13:42;;;;;;;;;5.75;4.50;;;;;6.40;89.03;98581.38;5022077;28;45432;-60
2021/11/27 00:16:08;;;;;;;;;5.50;5.50;;;;;6.35;88.63;98581.59;5008522;28;45361;-59
2021/11/27 00:18:33;;;;;;;;;9.25;7.25;;;;;6.32;89.11;98574.00;5026984;28;45621;-61
2021/11/27 00:21:02;;;;;;;;;5.50;5.00;;;;;6.26;89.07;98574.28;5028539;28;46550;-59
2021/11/27 00:23:30;;;;;;;;;6.25;6.25;;;;;6.23;89.32;98576.16;5029828;28;45891;-59
2021/11/27 00:25:57;;;;;;;;;5.25;5.00;;;;;6.21;89.49;98576.22;5011117;28;45355;-59
2021/11/27 00:28:23;;;;;;;;;4.75;4.75;;;;;6.21;89.57;98570.25;5027788;28;45492;-60
2021/11/27 00:30:50;;;;;;;;;7.00;7.00;;;;;6.22;89.74;98583.06;5028542;28;46288;-60
2021/11/27 00:33:17;;;;;;;;;4.75;4.25;;;;;6.19;88.81;98578.00;5010152;28;45581;-60
2021/11/27 00:35:42;;;;;;;;;4.75;4.00;;;;;6.20;89.20;98579.69;5028846;28;45344;-60
2021/11/27 00:38:08;;;;;;;;;6.50;5.50;;;;;6.22;89.28;98577.91;5010329;28;45460;-60
2021/11/27 00:40:38;;;;;;;;;4.00;4.00;;;;;6.20;88.99;98576.28;5027924;28;45654;-61
2021/11/27 00:43:06;;;;;;;;;8.00;3.75;;;;;6.17;89.10;98579.00;5026423;28;45838;-60
2021/11/27 00:45:31;;;;;;;;;5.50;5.25;;;;;6.13;89.58;98573.13;5028234;28;45342;-60
2021/11/27 00:47:58;;;;;;;;;9.50;4.50;;;;;6.16;89.30;98575.56;5026951;28;45530;-60
2021/11/27 00:50:31;;;;;;;;;6.00;2.50;;;;;6.20;89.29;98578.84;5030255;28;47007;-60
2021/11/27 00:53:00;;;;;;;;;6.50;4.00;;;;;6.23;89.54;98582.16;5026400;28;45506;-60
2021/11/27 00:55:26;;;;;;;;;2.75;2.50;;;;;6.26;88.83;98583.75;5009537;28;45619;-60
2021/11/27 00:57:52;;;;;;;;;4.00;3.25;;;;;6.25;88.59;98579.50;5025228;28;45674;-60
2021/11/27 01:00:22;;;;;;;;;3.00;3.00;;;;;6.25;88.88;98585.50;5027951;28;47062;-60
2021/11/27 01:02:49;;;;;;;;;5.00;3.50;;;;;6.26;88.92;98583.75;5028134;28;45294;-60
2021/11/27 01:05:15;;;;;;;;;4.75;3.75;;;;;6.22;88.30;98580.47;5026304;28;45397;-60
2021/11/27 01:07:42;;;;;;;;;6.00;2.25;;;;;6.17;87.38;98584.16;5027496;28;45469;-60
2021/11/27 01:10:11;;;;;;;;;4.75;1.00;;;;;6.13;87.11;98567.97;5023743;28;45522;-60
2021/11/27 01:12:37;;;;;;;;;4.75;2.00;;;;;6.09;86.93;98562.13;5028193;28;45702;-60
2021/11/27 01:15:04;;;;;;;;;4.00;1.75;;;;;6.03;87.05;98549.50;5026031;28;45431;-61
2021/11/27 01:17:29;;;;;;;;;0.00;0.00;;;;;5.97;86.81;98556.66;5026046;28;45641;-60
2021/11/27 01:19:55;;;;;;;;;2.00;0.00;;;;;5.88;86.06;98551.88;5022755;28;46118;-60
2021/11/27 01:22:23;;;;;;;;;1.50;1.00;;;;;5.77;86.03;98550.59;5030577;28;45519;-60
2021/11/27 01:24:50;;;;;;;;;0.75;0.75;;;;;5.69;85.29;98559.56;5010990;28;45791;-60
2021/11/27 01:27:15;;;;;;;;;4.25;1.00;;;;;5.59;84.43;98545.38;5020967;28;45404;-60
2021/11/27 01:29:42;;;;;;;;;1.25;1.00;;;;;5.52;83.70;98538.81;5004364;28;46300;-60
2021/11/27 01:32:11;;;;;;;;;0.00;0.00;;;;;5.45;83.77;98548.56;5006010;28;45454;-60
2021/11/27 01:34:37;;;;;;;;;1.00;1.00;;;;;5.42;84.09;98540.97;5017379;28;45399;-60
2021/11/27 01:37:03;;;;;;;;;0.00;0.00;;;;;5.44;82.35;98552.03;5011954;28;45222;-60
2021/11/27 01:39:28;;;;;;;;;0.75;0.00;;;;;5.40;81.75;98542.75;5006047;28;45192;-60
2021/11/27 01:41:54;;;;;;;;;1.75;0.00;;;;;5.36;82.16;98543.78;5006413;28;45327;-61
2021/11/27 01:44:19;;;;;;;;;0.00;0.00;;;;;5.27;81.05;98544.16;5009467;28;45344;-61
2021/11/27 01:46:45;;;;;;;;;0.00;0.00;;;;;5.26;81.31;98550.22;5012854;28;45342;-61
2021/11/27 01:49:11;;;;;;;;;0.00;0.00;;;;;5.20;81.71;98546.13;5010906;28;45351;-61
2021/11/27 01:51:37;;;;;;;;;0.00;0.00;;;;;5.21;82.26;98557.31;5012020;28;45391;-61
2021/11/27 01:54:07;;;;;;;;;1.00;0.00;;;;;5.14;82.13;98557.53;5007947;28;45332;-60
2021/11/27 01:56:37;;;;;;;;;0.50;0.50;;;;;5.09;83.36;98538.03;5012740;28;45431;-60
2021/11/27 01:59:05;;;;;;;;;0.00;0.00;;;;;5.09;83.42;98553.47;5012495;28;46064;-61
2021/11/27 02:01:32;;;;;;;;;0.50;0.50;;;;;5.08;83.80;98544.91;4986969;28;45321;-60
2021/11/27 02:03:58;;;;;;;;;0.50;0.50;;;;;5.08;84.06;98542.34;5012825;28;45562;-60
2021/11/27 02:06:25;;;;;;;;;0.25;0.25;;;;;5.09;83.62;98546.59;5006847;28;45231;-60
2021/11/27 02:08:53;;;;;;;;;1.50;1.00;;;;;5.10;83.81;98552.56;5005891;28;46229;-60
2021/11/27 02:11:32;;;;;;;;;0.00;0.00;;;;;5.09;84.70;98549.16;5011630;28;45335;-60
2021/11/27 02:13:59;;;;;;;;;1.75;1.00;;;;;5.12;84.13;98549.03;5002652;28;45424;-60
2021/11/27 02:16:26;;;;;;;;;5.00;1.00;;;;;5.12;84.50;98541.31;5009681;28;45523;-61
2021/11/27 02:18:51;;;;;;;;;2.00;2.00;;;;;5.11;84.75;98544.78;5018529;28;46349;-62
2021/11/27 02:21:21;;;;;;;;;1.75;1.00;;;;;5.12;85.45;98543.03;5018974;28;45319;-60
2021/11/27 02:23:48;;;;;;;;;0.25;0.25;;;;;5.13;85.57;98542.16;5002082;28;45271;-59
2021/11/27 02:26:17;;;;;;;;;0.00;0.00;;;;;5.10;85.13;98527.66;5023250;28;45155;-60
2021/11/27 02:28:56;;;;;;;;;1.00;1.00;;;;;5.09;85.68;98528.56;5018881;28;46255;-59
2021/11/27 02:31:24;;;;;;;;;1.25;0.00;;;;;5.04;85.40;98527.09;5018722;28;45743;-59
2021/11/27 02:33:50;;;;;;;;;1.25;0.75;;;;;5.01;85.81;98524.63;5019226;28;45263;-59
2021/11/27 02:36:16;;;;;;;;;0.00;0.00;;;;;4.97;86.01;98523.91;5001148;28;46012;-59
2021/11/27 02:38:41;;;;;;;;;0.25;0.25;;;;;4.92;85.37;98523.25;5019195;28;46150;-59
2021/11/27 02:41:07;;;;;;;;;0.25;0.00;;;;;4.89;85.94;98525.97;5024734;28;45488;-60
2021/11/27 02:43:32;;;;;;;;;0.75;0.00;;;;;4.94;86.46;98523.19;5029454;28;45434;-60
2021/11/27 02:45:58;;;;;;;;;1.25;1.00;;;;;4.92;86.04;98497.53;5022175;28;45340;-60
2021/11/27 02:48:24;;;;;;;;;0.00;0.00;;;;;4.93;85.79;98500.94;5022012;28;45992;-60
2021/11/27 02:50:49;;;;;;;;;1.00;1.00;;;;;4.90;85.68;98499.31;5024055;28;45289;-60
2021/11/27 02:53:16;;;;;;;;;2.00;1.00;;;;;4.91;85.38;98506.13;5022591;28;45508;-60
2021/11/27 02:55:42;;;;;;;;;1.25;1.00;;;;;4.92;85.56;98505.25;5021334;28;45407;-61
2021/11/27 02:58:07;;;;;;;;;1.00;1.00;;;;;4.91;85.60;98498.41;5022228;28;45251;-59
2021/11/27 03:00:33;;;;;;;;;0.25;0.00;;;;;4.87;85.35;98496.88;5021671;28;45512;-59
2021/11/27 03:02:58;;;;;;;;;0.50;0.00;;;;;4.87;85.81;98491.72;5022081;28;45329;-59
2021/11/27 03:05:23;;;;;;;;;0.25;0.25;;;;;4.84;85.54;98487.53;5021910;28;45175;-59
2021/11/27 03:07:49;;;;;;;;;1.00;0.00;;;;;4.81;85.11;98482.53;5022122;28;45450;-59
2021/11/27 03:10:17;;;;;;;;;1.00;1.00;;;;;4.82;85.80;98489.34;5021660;28;45213;-60
2021/11/27 03:12:44;;;;;;;;;2.50;1.00;;;;;4.82;85.03;98486.78;5028002;28;45320;-60
2021/11/27 03:15:12;;;;;;;;;0.00;0.00;;;;;4.81;85.58;98487.69;5025282;28;45419;-60
2021/11/27 03:17:38;;;;;;;;;0.00;0.00;;;;;4.82;85.42;98489.34;5029546;28;45419;-59
2021/11/27 03:20:05;;;;;;;;;0.50;0.50;;;;;4.79;85.79;98481.72;5020826;28;45261;-61
2021/11/27 03:22:30;;;;;;;;;0.50;0.00;;;;;4.76;84.78;98476.72;5022088;28;45477;-60
2021/11/27 03:24:56;;;;;;;;;0.00;0.00;;;;;4.75;85.03;98479.34;5003530;28;45676;-61
2021/11/27 03:27:21;;;;;;;;;1.50;0.25;;;;;4.70;85.14;98474.38;5021603;28;46200;-61
2021/11/27 03:29:47;;;;;;;;;1.00;0.00;;;;;4.69;85.50;98471.88;5021555;28;45429;-62
2021/11/27 03:32:15;;;;;;;;;2.00;0.25;;;;;4.66;84.79;98480.56;5021686;28;45369;-62
2021/11/27 03:34:42;;;;;;;;;3.50;0.00;;;;;4.67;84.91;98473.69;5021472;28;45578;-61
2021/11/27 03:37:08;;;;;;;;;0.00;0.00;;;;;4.67;85.67;98459.09;5021660;28;46284;-59
2021/11/27 03:39:34;;;;;;;;;0.00;0.00;;;;;4.67;85.36;98458.25;5021270;28;45252;-60
2021/11/27 03:42:02;;;;;;;;;0.00;0.00;;;;;4.66;85.28;98449.69;5021270;28;45306;-61
2021/11/27 03:44:27;;;;;;;;;1.00;0.00;;;;;4.62;85.56;98448.16;5019439;28;45269;-60
2021/11/27 03:46:53;;;;;;;;;1.00;0.25;;;;;4.64;85.78;98448.09;5021231;28;46110;-60
2021/11/27 03:49:25;;;;;;;;;0.00;0.00;;;;;4.58;84.79;98441.41;5021199;28;45294;-61
2021/11/27 03:51:51;;;;;;;;;0.75;0.75;;;;;4.56;85.22;98444.06;5022382;28;45497;-60
2021/11/27 03:54:16;;;;;;;;;0.00;0.00;;;;;4.54;84.57;98437.31;5021418;28;45325;-60
2021/11/27 03:56:42;;;;;;;;;2.00;0.00;;;;;4.51;85.47;98435.69;5020795;28;45321;-60
2021/11/27 03:59:07;;;;;;;;;1.00;1.00;;;;;4.53;84.84;98435.63;5021152;28;45329;-61
2021/11/27 04:01:33;;;;;;;;;1.00;1.00;;;;;4.52;84.61;98427.09;5021043;28;45435;-61
2021/11/27 04:04:00;;;;;;;;;0.50;0.00;;;;;4.50;84.80;98428.88;5021316;28;45337;-60
2021/11/27 04:06:27;;;;;;;;;0.75;0.00;;;;;4.46;84.83;98424.75;5020904;28;47056;-60
2021/11/27 04:08:54;;;;;;;;;0.75;0.00;;;;;4.42;84.66;98414.66;5020490;28;45267;-61
2021/11/27 04:11:20;;;;;;;;;0.00;0.00;;;;;4.45;85.80;98417.13;5020794;28;45190;-62
2021/11/27 04:13:45;;;;;;;;;0.00;0.00;;;;;4.44;85.31;98410.31;5027711;28;45512;-61
2021/11/27 04:16:11;;;;;;;;;2.00;0.00;;;;;4.39;85.46;98405.31;5011414;28;46841;-61
2021/11/27 04:18:36;;;;;;;;;1.00;1.00;;;;;4.33;84.82;98387.56;5020293;28;45486;-59
2021/11/27 04:21:02;;;;;;;;;0.00;0.00;;;;;4.35;85.49;98396.06;5021000;28;45392;-61
2021/11/27 04:23:28;;;;;;;;;0.00;0.00;;;;;4.35;85.38;98388.34;5002912;28;45313;-61
2021/11/27 04:25:53;;;;;;;;;0.00;0.00;;;;;4.36;85.75;98394.31;5021272;28;46349;-58
2021/11/27 04:28:19;;;;;;;;;0.50;0.00;;;;;4.28;84.77;98394.63;5020588;28;45340;-60
2021/11/27 04:30:44;;;;;;;;;0.25;0.25;;;;;4.15;84.59;98394.28;5021102;28;45340;-59
2021/11/27 04:33:10;;;;;;;;;0.00;0.00;;;;;4.13;85.51;98393.50;5020349;28;46385;-59
2021/11/27 04:35:37;;;;;;;;;0.00;0.00;;;;;4.16;85.74;98389.97;5020883;28;46099;-60
2021/11/27 04:38:04;;;;;;;;;0.00;0.00;;;;;4.13;85.42;98390.94;5020490;28;45765;-59
2021/11/27 04:40:31;;;;;;;;;2.50;0.50;;;;;4.14;84.77;98394.34;5020541;28;45243;-59
2021/11/27 04:42:58;;;;;;;;;1.00;0.00;;;;;4.15;85.83;98388.28;5017868;28;45285;-59
2021/11/27 04:45:23;;;;;;;;;4.00;0.00;;;;;4.18;85.14;98394.16;5020438;28;45344;-60
2021/11/27 04:47:49;;;;;;;;;0.00;0.00;;;;;4.21;85.12;98394.06;5020264;28;45387;-59
2021/11/27 04:50:16;;;;;;;;;0.00;0.00;;;;;4.14;85.07;98407.19;5022508;28;45312;-59
2021/11/27 04:52:43;;;;;;;;;2.00;0.50;;;;;4.10;85.14;98409.03;5020579;28;45489;-59
2021/11/27 04:55:09;;;;;;;;;3.25;0.00;;;;;4.10;85.69;98410.78;5019995;28;45479;-59
2021/11/27 04:57:35;;;;;;;;;0.00;0.00;;;;;4.12;85.33;98394.41;5020365;28;45717;-59
2021/11/27 05:00:01;;;;;;;;;1.00;1.00;;;;;4.14;84.83;98395.16;5020242;28;45423;-59
2021/11/27 05:02:26;;;;;;;;;0.00;0.00;;;;;4.20;85.24;98399.22;5019996;28;45577;-62
2021/11/27 05:04:51;;;;;;;;;0.00;0.00;;;;;4.19;85.21;98402.69;5019680;28;46703;-62
2021/11/27 05:07:17;;;;;;;;;1.00;1.00;;;;;4.14;84.83;98397.75;5020363;28;45280;-62
2021/11/27 05:09:43;;;;;;;;;2.25;0.00;;;;;4.20;84.74;98391.50;5020150;28;45360;-62
2021/11/27 05:12:08;;;;;;;;;1.00;1.00;;;;;4.22;84.34;98394.88;5021223;28;45545;-62
2021/11/27 05:14:34;;;;;;;;;0.00;0.00;;;;;4.23;84.47;98384.53;5025253;28;46868;-63
2021/11/27 05:17:00;;;;;;;;;2.50;1.00;;;;;4.30;85.23;98379.97;5028703;28;45417;-62
2021/11/27 05:19:25;;;;;;;;;1.00;0.75;;;;;4.37;84.71;98365.13;5019531;28;45419;-62
2021/11/27 05:21:51;;;;;;;;;0.25;0.00;;;;;4.32;84.48;98362.75;5019801;28;45289;-61
2021/11/27 05:24:16;;;;;;;;;0.75;0.75;;;;;4.33;84.59;98367.00;5020045;28;45316;-60
2021/11/27 05:26:42;;;;;;;;;2.00;0.00;;;;;4.38;85.04;98359.94;5002092;28;45248;-58
2021/11/27 05:29:07;;;;;;;;;0.00;0.00;;;;;4.50;85.16;98351.72;5020100;28;45370;-59
2021/11/27 05:31:33;;;;;;;;;1.00;1.00;;;;;4.59;84.36;98356.47;5019401;28;45290;-61
2021/11/27 05:36:39;;;;;;;;;5.75;0.50;;;;;4.61;83.95;98353.03;5019249;28;45495;-58
2021/11/27 05:39:05;;;;;;;;;0.00;0.00;;;;;4.59;83.44;98347.94;5019481;28;45314;-58
2021/11/27 05:41:31;;;;;;;;;1.25;0.00;;;;;4.61;83.00;98351.31;5019694;28;45505;-57
2021/11/27 05:43:57;;;;;;;;;1.00;0.00;;;;;4.67;82.28;98353.59;5017223;28;45403;-59
2021/11/27 05:46:23;;;;;;;;;1.50;0.00;;;;;4.66;82.44;98354.50;5019631;28;45853;-58
2021/11/27 05:48:48;;;;;;;;;1.50;0.00;;;;;4.63;83.10;98335.81;5001654;28;45321;-59
2021/11/27 05:51:14;;;;;;;;;0.50;0.00;;;;;4.65;82.51;98344.28;5021893;28;45222;-58
2021/11/27 05:53:40;;;;;;;;;1.00;0.00;;;;;4.61;82.39;98338.44;5019163;28;45983;-58
2021/11/27 05:56:06;;;;;;;;;0.25;0.00;;;;;4.62;83.13;98347.81;5019494;28;45222;-58
2021/11/27 05:58:31;;;;;;;;;2.75;0.00;;;;;4.67;82.90;98347.63;5019255;28;45637;-58
2021/11/27 06:01:02;;;;;;;;;0.50;0.25;;;;;4.75;83.13;98345.56;5019240;28;45277;-58
2021/11/27 06:03:28;;;;;;;;;1.00;0.50;;;;;4.75;82.62;98353.28;5019005;28;46092;-57
2021/11/27 06:05:54;;;;;;;;;1.00;0.00;;;;;4.71;81.89;98356.88;5019503;28;45238;-58
2021/11/27 06:08:19;;;;;;;;;0.25;0.00;;;;;4.74;83.11;98343.88;5019293;28;45289;-60
2021/11/27 06:10:44;;;;;;;;;1.25;1.00;;;;;4.71;82.66;98346.59;5019216;28;45237;-59
2021/11/27 06:13:10;;;;;;;;;1.00;1.00;;;;;4.73;82.30;98343.03;5025131;28;45159;-60
2021/11/27 06:15:35;;;;;;;;;0.75;0.75;;;;;4.77;82.12;98346.31;5027871;28;45269;-59
2021/11/27 06:18:00;;;;;;;;;1.25;1.25;;;;;4.82;81.89;98342.69;5025110;28;45487;-59
2021/11/27 06:20:27;;;;;;;;;1.25;0.00;;;;;4.78;81.31;98330.81;5022847;28;45441;-59
2021/11/27 06:22:52;;;;;;;;;2.00;1.00;;;;;4.83;82.26;98346.09;5004520;28;47429;-60
2021/11/27 06:25:18;;;;;;;;;1.00;1.00;;;;;4.89;82.32;98338.94;5022914;28;45338;-59
2021/11/27 06:27:43;;;;;;;;;1.75;1.00;;;;;4.95;82.30;98331.84;5022381;28;45477;-62
2021/11/27 06:30:09;;;;;;;;;0.75;0.75;;;;;4.99;82.34;98334.22;5022824;28;45272;-61
2021/11/27 06:32:35;;;;;;;;;1.00;0.75;;;;;5.03;82.14;98332.38;5021334;28;46765;-62
2021/11/27 06:35:01;;;;;;;;;2.00;0.00;;;;;5.08;81.88;98333.81;5022387;28;45377;-61
2021/11/27 06:37:27;;;;;;;;;0.75;0.75;;;;;5.12;82.12;98339.66;5022176;28;45158;-64
2021/11/27 06:39:53;;;;;;;;;2.50;0.00;;;;;5.05;81.67;98328.81;5022194;28;45436;-59
2021/11/27 06:42:19;;;;;;;;;2.00;1.00;;;;;5.01;81.12;98329.03;5021302;28;46286;-59
2021/11/27 06:44:47;;;;;;;;;2.00;0.00;;;;;4.97;82.75;98325.72;5020031;28;45279;-61
2021/11/27 06:47:15;;;;;;;;;1.50;0.25;;;;;5.06;81.98;98338.22;5021476;28;45466;-59
2021/11/27 06:49:40;;;;;;;;;0.50;0.00;;;;;5.05;82.63;98331.38;5021810;28;45463;-59
2021/11/27 06:52:06;;;;;;;;;0.75;0.75;;;;;5.00;82.82;98333.31;5029904;28;45394;-59
2021/11/27 06:54:31;;;;;;;;;3.25;0.25;;;;;4.95;83.27;98324.94;5030665;28;45138;-58
2021/11/27 06:56:57;;;;;;;;;0.25;0.25;;;;;4.78;84.57;98328.25;5027889;28;45318;-58
2021/11/27 06:59:22;;;;;;;;;2.00;1.00;;;;;4.71;84.95;98326.00;5030356;28;45220;-58
2021/11/27 07:01:47;;;;;;;;;0.00;0.00;;;;;4.69;85.20;98330.38;5031318;28;46147;-58
2021/11/27 07:04:13;;;;;;;;;0.25;0.25;;;;;4.69;85.00;98327.81;5031257;28;45215;-58
2021/11/27 07:06:40;;;;;;;;;0.00;0.00;;;;;4.69;86.10;98322.66;5028038;28;45293;-59
2021/11/27 07:09:06;;;;;;;;;0.00;0.00;;;;;4.68;85.76;98321.84;5029468;28;45170;-58
2021/11/27 07:11:31;;;;;;;;;0.00;0.00;;;;;4.64;86.88;98322.03;5030351;28;46296;-60
2021/11/27 07:13:56;;;;;;;;;3.50;0.50;;;;;4.56;86.17;98328.31;5026737;28;45419;-62
2021/11/27 07:16:22;;;;;;;;;0.00;0.00;;;;;4.55;86.65;98329.22;5028750;28;45399;-60
2021/11/27 07:18:47;;;;;;;;;2.00;0.00;;;;;4.50;86.40;98302.88;5031795;28;45604;-62
2021/11/27 07:21:13;;;;;;;;;0.00;0.00;;;;;4.54;87.04;98324.13;5023420;28;46114;-62
2021/11/27 07:23:38;;;;;;;;;3.25;1.00;;;;;4.54;86.91;98337.00;5023442;28;45463;-62
2021/11/27 07:26:03;;;;;;;;;1.75;1.00;;;;;4.57;86.74;98340.28;5023604;28;45430;-62
2021/11/27 07:28:29;;;;;;;;;0.75;0.00;;;;;4.63;86.67;98325.50;5031821;28;45483;-62
2021/11/27 07:30:54;;;;;;;;;0.50;0.50;;;;;4.63;86.82;98340.94;5025149;28;46528;-62
2021/11/27 07:33:20;;;;;;;;;0.00;0.00;;;;;4.59;86.50;98328.19;5011085;28;45332;-61
2021/11/27 07:35:46;;;;;;;;;0.00;0.00;;;;;4.58;87.82;98336.81;5028952;28;45339;-62
2021/11/27 07:38:12;;;;;;;;;1.00;0.00;;;;;4.59;87.15;98332.50;5030785;28;45551;-62
2021/11/27 07:40:37;;;;;;;;;2.50;1.00;;;;;4.59;87.47;98341.03;5028619;28;45899;-60
2021/11/27 07:43:05;;;;;;;;;0.00;0.00;;;;;4.57;87.80;98332.56;5028096;28;45392;-60
2021/11/27 07:45:33;;;;;;;;;0.00;0.00;;;;;4.37;89.44;98332.53;5027182;28;45514;-60
2021/11/27 07:47:58;;;;;;;;;0.00;0.00;;;;;4.30;89.44;98331.13;5028912;28;45357;-61
2021/11/27 07:50:24;;;;;;;;;0.00;0.00;;;;;4.33;88.59;98336.16;5029265;28;46294;-61
2021/11/27 07:52:49;;;;;;;;;1.00;0.00;;;;;4.36;89.54;98336.00;5011539;28;45267;-60
2021/11/27 07:55:14;;;;;;;;;1.00;1.00;;;;;4.41;88.59;98335.84;5029866;28;45304;-61
2021/11/27 07:57:40;;;;;;;;;1.00;0.00;;;;;4.41;89.10;98344.41;5031243;28;45575;-61
2021/11/27 08:00:06;;;;;;;;;0.00;0.00;;;;;4.30;89.74;98340.59;5027150;28;46162;-60
2021/11/27 08:02:32;;;;;;;;;0.00;0.00;;;;;4.23;90.34;98356.25;5030986;28;45423;-62
2021/11/27 08:04:57;;;;;;;;;1.00;0.75;;;;;4.09;90.63;98350.81;5028452;28;45254;-59
2021/11/27 08:07:22;;;;;;;;;1.00;1.00;;;;;4.03;90.16;98348.50;5029749;28;45201;-70
2021/11/27 08:09:48;;;;;;;;;0.00;0.00;;;;;4.05;91.04;98343.31;5004467;28;46280;-56
2021/11/27 08:12:13;;;;;;;;;1.75;0.50;;;;;4.02;91.44;98353.72;5022761;28;45228;-57
2021/11/27 08:14:38;;;;;;;;;0.00;0.00;;;;;3.97;92.31;98343.59;5032523;28;45298;-57
2021/11/27 08:17:04;;;;;;;;;0.00;0.00;;;;;3.94;92.12;98343.72;5031270;28;45341;-58
2021/11/27 08:19:29;;;;;;;;;0.00;0.00;;;;;3.93;91.73;98358.28;5025492;28;45229;-58
2021/11/27 08:21:55;;;;;;;;;0.75;0.25;;;;;3.98;92.44;98347.81;5026456;28;45224;-58
2021/11/27 08:24:20;;;;;;;;;0.25;0.25;;;;;3.97;91.60;98348.72;5026983;28;45318;-58
2021/11/27 08:26:45;;;;;;;;;0.50;0.50;;;;;3.98;91.51;98346.09;5020927;28;45384;-59
2021/11/27 08:29:11;;;;;;;;;2.00;0.00;;;;;4.03;91.88;98350.25;5021827;28;45314;-58
2021/11/27 08:31:36;;;;;;;;;0.75;0.75;;;;;4.05;90.66;98348.44;5008029;28;45360;-58
2021/11/27 08:34:02;;;;;;;;;1.00;0.00;;;;;4.11;91.15;98349.03;5026415;28;45300;-58
2021/11/27 08:36:27;;;;;;;;;1.50;0.00;;;;;4.15;90.94;98345.44;5021099;28;45407;-58
2021/11/27 08:38:53;;;;;;;;;0.00;0.00;;;;;4.21;91.05;98359.81;5025435;28;47463;-58
2021/11/27 08:41:19;;;;;;;;;0.75;0.00;;;;;4.22;90.87;98356.31;5021109;28;45497;-57
2021/11/27 08:43:44;;;;;;;;;0.00;0.00;;;;;4.21;90.32;98352.91;5028842;28;45483;-57
2021/11/27 08:46:09;;;;;;;;;1.00;1.00;;;;;4.22;91.53;98358.91;5021544;28;45773;-56
2021/11/27 08:48:37;;;;;;;;;4.00;0.00;;;;;4.28;91.21;98350.94;5021493;28;45921;-56
2021/11/27 08:51:04;;;;;;;;;0.50;0.00;;;;;4.36;90.88;98361.72;5024699;28;45438;-56
2021/11/27 08:53:30;;;;;;;;;5.00;0.75;;;;;4.38;90.30;98365.06;5029695;28;45398;-56
2021/11/27 08:55:55;;;;;;;;;0.00;0.00;;;;;4.38;90.14;98367.66;5029000;28;45607;-57
2021/11/27 08:58:21;;;;;;;;;0.50;0.50;;;;;4.37;91.07;98365.97;5027578;28;46060;-58
2021/11/27 09:00:47;;;;;;;;;0.00;0.00;;;;;4.35;90.78;98365.19;5009426;28;45505;-58
2021/11/27 09:03:12;;;;;;;;;0.00;0.00;;;;;4.38;90.32;98365.06;5027966;28;45427;-58
2021/11/27 09:05:38;;;;;;;;;0.50;0.00;;;;;4.39;89.91;98364.19;5027129;28;45314;-57
2021/11/27 09:08:04;;;;;;;;;0.50;0.50;;;;;4.38;90.33;98374.53;5027071;28;46116;-57
2021/11/27 09:10:29;;;;;;;;;0.00;0.00;;;;;4.41;91.03;98377.84;5027946;28;45305;-57
2021/11/27 09:12:55;;;;;;;;;0.00;0.00;;;;;4.49;89.77;98364.66;5009840;28;45468;-58
2021/11/27 09:15:21;;;;;;;;;0.00;0.00;;;;;4.50;90.42;98376.63;5030171;28;45436;-57
2021/11/27 09:17:46;;;;;;;;;0.00;0.00;;;;;4.53;91.24;98371.34;5026512;28;45898;-56
2021/11/27 09:20:11;;;;;;;;;0.00;0.00;;;;;4.56;90.23;98378.91;5028002;28;45495;-56
2021/11/27 09:22:37;;;;;;;;;0.75;0.75;;;;;4.59;90.32;98392.50;5027871;28;45861;-57
2021/11/27 09:25:03;;;;;;;;;0.00;0.00;;;;;4.57;89.95;98391.72;5027272;28;45400;-56
2021/11/27 09:27:28;;;;;;;;;0.00;0.00;;;;;4.57;90.17;98386.56;5026282;28;46304;-57
2021/11/27 09:29:54;;;;;;;;;0.50;0.50;;;;;4.62;90.27;98386.41;5024942;28;45347;-57
2021/11/27 09:32:19;;;;;;;;;0.00;0.00;;;;;4.70;90.40;98388.66;5025372;28;45465;-57
2021/11/27 09:34:45;;;;;;;;;0.00;0.00;;;;;4.80;90.62;98395.06;5023009;28;45355;-59
2021/11/27 09:37:14;;;;;;;;;3.00;0.00;;;;;4.94;90.51;98399.66;5023072;28;45414;-58
2021/11/27 09:39:41;;;;;;;;;0.00;0.00;;;;;4.94;88.60;98405.63;5026542;28;45371;-56
2021/11/27 09:42:08;;;;;;;;;0.00;0.00;;;;;4.94;88.63;98412.53;5025091;28;45418;-55
2021/11/27 09:44:36;;;;;;;;;2.00;1.00;;;;;4.95;89.54;98409.06;5023037;28;45545;-56
2021/11/27 09:47:02;;;;;;;;;1.00;1.00;;;;;5.01;88.80;98421.69;5023761;28;47372;-55
2021/11/27 09:49:28;;;;;;;;;0.00;0.00;;;;;5.02;88.78;98413.06;5027092;28;46560;-56
2021/11/27 09:51:54;;;;;;;;;0.50;0.50;;;;;5.10;89.23;98413.56;5033065;28;45391;-55
2021/11/27 09:54:21;;;;;;;;;0.50;0.50;;;;;5.29;89.40;98427.31;5030906;28;45612;-56
2021/11/27 09:56:49;;;;;;;;;0.75;0.75;;;;;5.42;88.50;98417.34;5025274;28;46091;-56
2021/11/27 09:59:16;;;;;;;;;2.25;0.75;;;;;5.43;87.50;98422.41;5028532;28;45471;-56
2021/11/27 10:01:45;;;;;;;;;0.00;0.00;;;;;5.44;87.30;98408.63;5033121;28;46022;-57
2021/11/27 10:04:11;;;;;;;;;0.50;0.50;;;;;5.49;86.97;98414.41;5028964;28;45300;-57
2021/11/27 10:06:41;;;;;;;;;1.00;1.00;;;;;5.56;87.83;98417.53;5025607;28;45422;-57
2021/11/27 10:09:09;;;;;;;;;4.00;1.00;;;;;5.58;86.97;98423.47;5022502;28;46030;-55
2021/11/27 10:11:35;;;;;;;;;1.00;1.00;;;;;5.59;86.87;98419.13;5028404;28;45497;-56
2021/11/27 10:14:01;;;;;;;;;1.00;1.00;;;;;5.62;86.53;98413.88;5022997;28;45431;-56
2021/11/27 10:16:26;;;;;;;;;0.50;0.50;;;;;5.69;87.13;98420.41;5032543;28;45373;-56
2021/11/27 10:19:09;;;;;;;;;2.00;2.00;;;;;5.69;86.75;98431.56;5029590;28;45202;-56
2021/11/27 10:21:37;;;;;;;;;0.50;0.50;;;;;5.79;86.96;98426.81;5031711;28;45434;-57
2021/11/27 10:24:33;;;;;;;;;0.50;0.50;;;;;5.88;86.49;98429.00;5031628;28;45234;-56
2021/11/27 10:27:00;;;;;;;;;1.00;1.00;;;;;5.94;86.02;98431.31;5028583;28;46172;-58
2021/11/27 10:29:34;;;;;;;;;1.75;1.00;;;;;5.95;85.44;98432.16;5030057;28;45233;-56
2021/11/27 10:32:12;;;;;;;;;1.00;1.00;;;;;5.84;85.50;98430.03;5031166;28;45219;-57
2021/11/27 10:34:45;;;;;;;;;2.25;1.00;;;;;5.73;85.79;98434.84;5026107;28;45846;-56
2021/11/27 10:37:40;;;;;;;;;1.00;1.00;;;;;5.69;85.82;98435.88;5028317;28;46372;-57
2021/11/27 10:40:19;;;;;;;;;1.75;1.50;;;;;5.57;85.86;98432.09;5028890;28;45884;-57
2021/11/27 10:42:54;;;;;;;;;1.50;1.50;;;;;5.60;86.09;98431.13;5030050;28;45693;-56
2021/11/27 10:45:29;;;;;;;;;5.75;3.50;;;;;5.68;86.38;98437.63;5024727;28;45628;-58
2021/11/27 10:48:21;;;;;;;;;1.00;1.00;;;;;5.71;85.87;98429.75;5023305;28;45985;-57
2021/11/27 10:50:52;;;;;;;;;5.25;3.75;;;;;5.74;86.04;98428.78;5032156;28;45495;-57
2021/11/27 10:53:51;;;;;;;;;2.00;1.00;;;;;5.78;85.19;98432.88;5030126;28;45606;-57
2021/11/27 10:56:16;;;;;;;;;1.00;1.00;;;;;5.85;86.26;98430.88;5030747;28;45453;-55
2021/11/27 10:59:03;;;;;;;;;1.00;1.00;;;;;5.90;85.39;98423.81;5021045;28;46856;-55
2021/11/27 11:01:29;;;;;;;;;1.00;1.00;;;;;5.87;84.84;98427.31;5020757;28;45447;-55
2021/11/27 11:03:55;;;;;;;;;0.50;0.50;;;;;5.89;85.22;98427.25;5031934;28;45488;-55
2021/11/27 11:06:26;;;;;;;;;1.00;1.00;;;;;5.90;84.91;98439.25;5029623;28;45580;-55
2021/11/27 11:08:53;;;;;;;;;0.00;0.00;;;;;5.94;84.94;98425.31;5026943;28;46189;-56
2021/11/27 11:11:19;;;;;;;;;0.00;0.00;;;;;6.03;85.69;98442.97;5028177;28;45404;-56
2021/11/27 11:13:44;;;;;;;;;3.33;1.00;;;;;6.12;83.77;98442.53;5031374;28;45300;-55
2021/11/27 11:16:09;;;;;;;;;0.00;0.00;;;;;6.13;83.35;98441.63;5030459;28;45498;-55
2021/11/27 11:18:35;;;;;;;;;1.00;1.00;;;;;6.18;84.07;98447.41;5028232;28;45322;-55
2021/11/27 11:21:05;;;;;;;;;2.00;2.00;;;;;6.28;83.82;98450.41;5024506;28;45706;-54
2021/11/27 11:23:35;;;;;;;;;2.75;1.00;;;;;6.39;83.63;98446.38;5022752;28;45467;-57
2021/11/27 11:26:10;;;;;;;;;1.00;1.00;;;;;6.53;82.98;98444.91;5022114;28;45487;-55
2021/11/27 11:28:38;;;;;;;;;1.75;0.00;;;;;6.62;82.04;98444.50;5028158;28;46145;-53
2021/11/27 11:31:07;;;;;;;;;1.75;1.75;;;;;6.68;82.30;98449.34;5028397;28;46025;-55
2021/11/27 11:33:35;;;;;;;;;1.25;1.25;;;;;6.71;81.67;98457.78;5027147;28;45773;-55
2021/11/27 11:36:04;;;;;;;;;1.75;1.75;;;;;6.69;80.73;98461.34;5025454;28;45550;-55
2021/11/27 11:38:29;;;;;;;;;1.00;1.00;;;;;6.71;81.89;98449.19;5028206;28;46351;-54
2021/11/27 11:40:55;;;;;;;;;2.25;1.00;;;;;6.72;81.51;98462.03;5023871;28;45347;-55
2021/11/27 11:43:20;;;;;;;;;0.50;0.50;;;;;6.70;81.45;98456.09;5027014;28;45285;-54